Time;durP1;ratioP1;P1;durP2;ratioP2;P2;SDS_P1;SDS_P2;PMS_P1;PMS_P2;Temp;Humidity;BMP_temperature;BMP_pressure;BME280_temperature;BME280_humidity;BME280_pressure;Samples;Min_cycle;Max_cycle;Signal;HPM_P1;HPM_P2
2021/12/31 00:02:23;;;;;;;1999.90;999.90;;;12.30;99.90;;;;;;5094691;28;20047;-65
2021/12/31 00:04:50;;;;;;;1999.90;999.90;;;12.10;99.90;;;;;;5094201;28;20040;-65
2021/12/31 00:07:16;;;;;;;1999.90;999.90;;;12.30;99.90;;;;;;5094144;28;20040;-65
2021/12/31 00:09:42;;;;;;;1999.90;999.90;;;12.30;99.90;;;;;;5094534;28;20056;-64
2021/12/31 00:12:08;;;;;;;1999.90;999.90;;;12.30;99.90;;;;;;5094306;28;20605;-65
2021/12/31 00:14:35;;;;;;;1999.90;999.90;;;12.30;99.90;;;;;;5093683;28;20578;-64
2021/12/31 00:17:01;;;;;;;1999.90;999.90;;;12.30;99.90;;;;;;5076523;28;20047;-64
2021/12/31 00:19:30;;;;;;;1999.90;999.90;;;12.30;99.90;;;;;;5093501;28;20135;-65
2021/12/31 00:21:57;;;;;;;1999.90;999.90;;;12.40;99.90;;;;;;5094416;28;20119;-65
2021/12/31 00:24:25;;;;;;;1999.90;999.90;;;12.30;99.90;;;;;;5094642;28;20036;-65
2021/12/31 00:26:51;;;;;;;1999.90;999.90;;;12.30;99.90;;;;;;5093725;28;20185;-65
2021/12/31 00:29:17;;;;;;;1999.90;999.90;;;12.30;99.90;;;;;;5094213;28;20529;-64
2021/12/31 00:31:43;;;;;;;1999.90;999.90;;;12.30;99.90;;;;;;5101924;28;20043;-65
2021/12/31 00:34:08;;;;;;;1999.90;999.90;;;12.30;99.90;;;;;;5103998;28;20040;-65
2021/12/31 00:36:43;;;;;;;1999.90;999.90;;;12.30;99.90;;;;;;5108399;28;20157;-64
2021/12/31 00:39:09;;;;;;;1999.90;999.90;;;12.30;99.90;;;;;;5098626;28;20054;-64
2021/12/31 00:41:35;;;;;;;1999.90;999.90;;;12.30;99.90;;;;;;5098944;28;20044;-65
2021/12/31 00:44:01;;;;;;;1999.90;999.90;;;12.30;99.90;;;;;;5103146;28;20079;-65
2021/12/31 00:46:28;;;;;;;1999.90;999.90;;;12.30;99.90;;;;;;5103535;28;20067;-66
2021/12/31 00:48:54;;;;;;;1999.90;999.90;;;12.30;99.90;;;;;;5082988;28;20051;-64
2021/12/31 00:51:19;;;;;;;1999.90;999.90;;;12.20;99.90;;;;;;5105233;28;20039;-65
2021/12/31 00:53:45;;;;;;;1999.90;999.90;;;12.20;99.90;;;;;;5096197;28;20054;-65
2021/12/31 00:56:11;;;;;;;1999.90;999.90;;;12.10;99.90;;;;;;5113482;28;20047;-64
2021/12/31 00:58:37;;;;;;;1999.90;999.90;;;12.20;99.90;;;;;;5096584;28;20086;-64
2021/12/31 01:01:03;;;;;;;1999.90;999.90;;;12.20;99.90;;;;;;5093609;28;20048;-64
2021/12/31 01:03:29;;;;;;;1999.90;999.90;;;12.10;99.90;;;;;;5092319;28;20438;-65
2021/12/31 01:05:55;;;;;;;1999.90;999.90;;;12.20;99.90;;;;;;5093146;28;20040;-65
2021/12/31 01:08:20;;;;;;;1999.90;999.90;;;12.10;99.90;;;;;;5093638;28;20052;-64
2021/12/31 01:10:46;;;;;;;1999.90;999.90;;;12.20;99.90;;;;;;5092735;28;20082;-65
2021/12/31 01:13:22;;;;;;;1999.90;999.90;;;12.10;99.90;;;;;;5093387;28;20482;-65
2021/12/31 01:15:50;;;;;;;1999.90;999.90;;;12.10;99.90;;;;;;5074268;28;20054;-65
2021/12/31 01:18:21;;;;;;;1999.90;999.90;;;12.10;99.90;;;;;;5093652;28;20090;-64
2021/12/31 01:20:46;;;;;;;1999.90;999.90;;;12.20;99.90;;;;;;5093326;28;20044;-65
2021/12/31 01:23:15;;;;;;;1999.90;999.90;;;12.10;99.90;;;;;;5092185;28;20085;-65
2021/12/31 01:25:41;;;;;;;1999.90;999.90;;;12.10;99.90;;;;;;5098602;28;20047;-65
2021/12/31 01:28:07;;;;;;;1999.90;999.90;;;12.00;99.90;;;;;;5103566;28;20040;-65
2021/12/31 01:30:33;;;;;;;1999.90;999.90;;;12.10;99.90;;;;;;5100890;28;20035;-65
2021/12/31 01:32:59;;;;;;;1999.90;999.90;;;12.10;99.90;;;;;;5100997;28;20039;-65
2021/12/31 01:35:25;;;;;;;1999.90;999.90;;;12.00;99.90;;;;;;5103227;28;20402;-65
2021/12/31 01:37:50;;;;;;;1999.90;999.90;;;12.00;99.90;;;;;;5083677;28;20497;-65
2021/12/31 01:40:16;;;;;;;1999.90;999.90;;;12.00;99.90;;;;;;5077501;28;20044;-65
2021/12/31 01:42:42;;;;;;;1999.90;999.90;;;12.00;99.90;;;;;;5092183;28;20070;-65
2021/12/31 01:45:15;;;;;;;1999.90;999.90;;;12.00;99.90;;;;;;5074226;28;20048;-65
2021/12/31 01:50:28;;;;;;;1999.90;999.90;;;12.00;99.90;;;;;;5076496;28;20111;-64
2021/12/31 01:52:55;;;;;;;1999.90;999.90;;;12.00;99.90;;;;;;5098884;28;20050;-65
2021/12/31 01:55:23;;;;;;;1999.90;999.90;;;12.10;99.90;;;;;;5102701;28;20042;-65
2021/12/31 01:57:50;;;;;;;1999.90;999.90;;;12.10;99.90;;;;;;5102474;28;20044;-64
2021/12/31 02:00:17;;;;;;;1999.90;999.90;;;12.10;99.90;;;;;;5101928;28;20071;-65
2021/12/31 02:02:44;;;;;;;1999.90;999.90;;;12.10;99.90;;;;;;5102431;28;20477;-65
2021/12/31 02:05:11;;;;;;;1999.90;999.90;;;12.00;99.90;;;;;;5084671;28;20359;-65
2021/12/31 02:07:37;;;;;;;1999.90;999.90;;;12.10;99.90;;;;;;5101205;28;20044;-65
2021/12/31 02:10:04;;;;;;;1999.90;999.90;;;12.10;99.90;;;;;;5103432;28;20039;-65
2021/12/31 02:12:29;;;;;;;1999.90;999.90;;;12.10;99.90;;;;;;5083139;28;20478;-65
2021/12/31 02:14:55;;;;;;;1999.90;999.90;;;12.10;99.90;;;;;;5108122;28;20084;-65
2021/12/31 02:17:21;;;;;;;1999.90;999.90;;;12.10;99.90;;;;;;5107455;28;20105;-65
2021/12/31 02:20:00;;;;;;;1999.90;999.90;;;12.10;99.90;;;;;;5095841;28;20044;-64
2021/12/31 02:22:28;;;;;;;1999.90;999.90;;;12.10;99.90;;;;;;5097023;28;20102;-65
2021/12/31 02:24:56;;;;;;;1999.90;999.90;;;12.10;99.90;;;;;;5078635;28;20504;-65
2021/12/31 02:27:23;;;;;;;1999.90;999.90;;;12.10;99.90;;;;;;5077144;28;20498;-65
2021/12/31 02:29:49;;;;;;;1999.90;999.90;;;12.10;99.90;;;;;;5096845;28;20506;-65
2021/12/31 02:32:15;;;;;;;1999.90;999.90;;;12.10;99.90;;;;;;5096460;28;20184;-66
2021/12/31 02:34:41;;;;;;;1999.90;999.90;;;12.00;99.90;;;;;;5074121;28;20051;-65
2021/12/31 02:37:07;;;;;;;1999.90;999.90;;;12.00;99.90;;;;;;5078074;28;20048;-65
2021/12/31 02:39:34;;;;;;;1999.90;999.90;;;12.00;99.90;;;;;;5096529;28;20031;-66
2021/12/31 02:42:00;;;;;;;1999.90;999.90;;;12.00;99.90;;;;;;5095269;28;20068;-65
2021/12/31 02:44:26;;;;;;;1999.90;999.90;;;12.00;99.90;;;;;;5095942;28;20465;-65
2021/12/31 02:46:52;;;;;;;1999.90;999.90;;;12.10;99.90;;;;;;5096631;28;20044;-66
2021/12/31 02:49:23;;;;;;;1999.90;999.90;;;12.10;99.90;;;;;;5095360;28;20517;-66
2021/12/31 02:51:48;;;;;;;1999.90;999.90;;;12.10;99.90;;;;;;5096045;28;20044;-66
2021/12/31 02:54:17;;;;;;;1999.90;999.90;;;12.10;99.90;;;;;;5095619;28;20047;-65
2021/12/31 02:56:44;;;;;;;1999.90;999.90;;;12.10;99.90;;;;;;5101102;28;20040;-66
2021/12/31 02:59:10;;;;;;;1999.90;999.90;;;12.10;99.90;;;;;;5105970;28;20086;-66
2021/12/31 03:01:36;;;;;;;1999.90;999.90;;;12.20;99.90;;;;;;5104837;28;20073;-66
2021/12/31 03:04:04;;;;;;;1999.90;999.90;;;12.30;99.90;;;;;;5104288;28;20039;-66
2021/12/31 03:06:30;;;;;;;1999.90;999.90;;;12.30;99.90;;;;;;5110778;28;20036;-65
2021/12/31 03:08:58;;;;;;;1999.90;999.90;;;12.40;99.90;;;;;;5106540;28;20044;-65
2021/12/31 03:11:24;;;;;;;1999.90;999.90;;;12.40;99.90;;;;;;5084753;28;20047;-66
2021/12/31 03:13:52;;;;;;;1999.90;999.90;;;12.50;99.90;;;;;;5105311;28;20514;-66
2021/12/31 03:16:22;;;;;;;1999.90;999.90;;;12.50;99.90;;;;;;5087929;28;20055;-66
2021/12/31 03:18:50;;;;;;;1999.90;999.90;;;12.50;99.90;;;;;;5108844;28;20048;-65
2021/12/31 03:21:22;;;;;;;1999.90;999.90;;;12.50;99.90;;;;;;5094636;28;20044;-66
2021/12/31 03:23:50;;;;;;;1999.90;999.90;;;12.50;99.90;;;;;;5094002;28;20054;-66
2021/12/31 03:26:16;;;;;;;1999.90;999.90;;;12.40;99.90;;;;;;5093989;28;20098;-66
2021/12/31 03:28:42;;;;;;;1999.90;999.90;;;12.50;99.90;;;;;;5093964;28;20044;-66
2021/12/31 03:31:08;;;;;;;1999.90;999.90;;;12.50;99.90;;;;;;5093995;28;20066;-65
2021/12/31 03:33:33;;;;;;;1999.90;999.90;;;12.50;99.90;;;;;;5094135;28;20048;-66
2021/12/31 03:35:59;;;;;;;1999.90;999.90;;;12.50;99.90;;;;;;5093968;28;20517;-66
2021/12/31 03:38:25;;;;;;;1999.90;999.90;;;12.60;99.90;;;;;;5093590;28;20067;-66
2021/12/31 03:40:50;;;;;;;1999.90;999.90;;;12.50;99.90;;;;;;5093702;28;20044;-66
2021/12/31 03:43:16;;;;;;;1999.90;999.90;;;12.60;99.90;;;;;;5093404;28;20087;-66
2021/12/31 03:45:42;;;;;;;1999.90;999.90;;;12.60;99.90;;;;;;5093921;28;20040;-66
2021/12/31 03:48:08;;;;;;;1999.90;999.90;;;12.60;99.90;;;;;;5093929;28;20571;-66
2021/12/31 03:50:34;;;;;;;1999.90;999.90;;;12.60;99.90;;;;;;5093403;28;20040;-66
2021/12/31 03:52:59;;;;;;;1999.90;999.90;;;12.60;99.90;;;;;;5093924;28;20055;-66
2021/12/31 03:55:25;;;;;;;1999.90;999.90;;;12.60;99.90;;;;;;5093416;28;20055;-65
2021/12/31 03:57:51;;;;;;;1999.90;999.90;;;12.60;99.90;;;;;;5092881;28;20055;-66
2021/12/31 04:00:17;;;;;;;1999.90;999.90;;;12.60;99.90;;;;;;5093984;28;20052;-66
2021/12/31 04:02:42;;;;;;;1999.90;999.90;;;12.60;99.90;;;;;;5093296;28;20044;-66
2021/12/31 04:05:09;;;;;;;1999.90;999.90;;;12.60;99.90;;;;;;5093204;28;20504;-65
2021/12/31 04:07:34;;;;;;;1999.90;999.90;;;12.70;99.90;;;;;;5093962;28;20494;-66
2021/12/31 04:10:00;;;;;;;1999.90;999.90;;;12.70;99.90;;;;;;5039106;28;1046764;-66
2021/12/31 04:12:26;;;;;;;1999.90;999.90;;;12.60;99.90;;;;;;5093774;28;20477;-66
2021/12/31 04:14:52;;;;;;;1999.90;999.90;;;12.60;99.90;;;;;;5094524;28;20127;-66
2021/12/31 04:17:18;;;;;;;1999.90;999.90;;;12.60;99.90;;;;;;5094198;28;20055;-66
2021/12/31 04:19:43;;;;;;;1999.90;999.90;;;12.60;99.90;;;;;;5094098;28;20119;-66
2021/12/31 04:22:12;;;;;;;1999.90;999.90;;;12.50;99.90;;;;;;5094158;28;20039;-66
2021/12/31 04:27:11;;;;;;;1999.90;999.90;;;12.50;99.90;;;;;;5075402;28;20079;-66
2021/12/31 04:29:37;;;;;;;1999.90;999.90;;;12.50;99.90;;;;;;5094205;28;20141;-66
2021/12/31 04:32:03;;;;;;;1999.90;999.90;;;12.50;99.90;;;;;;5093834;28;20119;-66
2021/12/31 04:34:29;;;;;;;1999.90;999.90;;;12.50;99.90;;;;;;5075307;28;20405;-67
2021/12/31 04:36:56;;;;;;;1999.90;999.90;;;12.50;99.90;;;;;;5094007;28;20048;-66
2021/12/31 04:39:21;;;;;;;1999.90;999.90;;;12.50;99.90;;;;;;5074575;28;20502;-66
2021/12/31 04:41:47;;;;;;;1999.90;999.90;;;12.60;99.90;;;;;;5093131;28;20044;-66
2021/12/31 04:44:13;;;;;;;1999.90;999.90;;;12.60;99.90;;;;;;5094232;28;20483;-66
2021/12/31 04:46:39;;;;;;;1999.90;999.90;;;12.70;99.90;;;;;;5092830;28;20486;-66
2021/12/31 04:49:06;;;;;;;1999.90;999.90;;;12.60;99.90;;;;;;5094261;28;20078;-66
2021/12/31 04:51:33;;;;;;;1999.90;999.90;;;12.60;99.90;;;;;;5093866;28;20052;-66
2021/12/31 04:53:58;;;;;;;1999.90;999.90;;;12.70;99.90;;;;;;5092788;28;20056;-66
2021/12/31 04:56:24;;;;;;;1999.90;999.90;;;12.60;99.90;;;;;;5093469;28;20040;-66
2021/12/31 04:58:50;;;;;;;1999.90;999.90;;;12.60;99.90;;;;;;5093995;28;20123;-66
2021/12/31 05:01:20;;;;;;;1999.90;999.90;;;12.70;99.90;;;;;;5092911;28;20463;-65
2021/12/31 05:03:46;;;;;;;1999.90;999.90;;;12.80;99.90;;;;;;5093769;28;20044;-66
2021/12/31 05:06:12;;;;;;;1999.90;999.90;;;12.80;99.90;;;;;;5093534;28;20398;-66
2021/12/31 05:08:38;;;;;;;1999.90;999.90;;;12.70;99.90;;;;;;5092855;28;20476;-66
2021/12/31 05:11:03;;;;;;;1999.90;999.90;;;12.70;99.90;;;;;;5093141;28;20052;-66
2021/12/31 05:13:29;;;;;;;1999.90;999.90;;;12.70;99.90;;;;;;5093332;28;20120;-66
2021/12/31 05:16:01;;;;;;;1999.90;999.90;;;12.70;99.90;;;;;;5091063;28;20067;-66
2021/12/31 05:18:27;;;;;;;1999.90;999.90;;;12.80;99.90;;;;;;5093430;28;20119;-67
2021/12/31 05:20:53;;;;;;;1999.90;999.90;;;12.80;99.90;;;;;;5093528;28;20554;-66
2021/12/31 05:23:18;;;;;;;1999.90;999.90;;;12.70;99.90;;;;;;5073633;28;20070;-66
2021/12/31 05:25:44;;;;;;;1999.90;999.90;;;12.70;99.90;;;;;;5093208;28;20052;-66
2021/12/31 05:28:10;;;;;;;1999.90;999.90;;;12.90;99.90;;;;;;5093466;28;20048;-65
2021/12/31 05:30:36;;;;;;;1999.90;999.90;;;12.90;99.90;;;;;;5092218;28;20048;-66
2021/12/31 05:33:01;;;;;;;1999.90;999.90;;;13.00;99.90;;;;;;5093123;28;20046;-65
2021/12/31 05:35:27;;;;;;;1999.90;999.90;;;13.00;99.90;;;;;;5093206;28;20044;-65
2021/12/31 05:37:53;;;;;;;1999.90;999.90;;;12.90;99.90;;;;;;5091923;28;20127;-65
2021/12/31 05:40:19;;;;;;;1999.90;999.90;;;12.80;99.90;;;;;;5074712;28;20129;-65
2021/12/31 05:42:45;;;;;;;1999.90;999.90;;;12.70;99.90;;;;;;5074887;28;20060;-66
2021/12/31 05:45:11;;;;;;;1999.90;999.90;;;12.80;99.90;;;;;;5074143;28;20063;-66
2021/12/31 05:47:38;;;;;;;1999.90;999.90;;;12.70;99.90;;;;;;5093080;28;20052;-66
2021/12/31 05:50:07;;;;;;;1999.90;999.90;;;12.70;99.90;;;;;;5091839;28;20040;-66
2021/12/31 05:52:34;;;;;;;1999.90;999.90;;;12.60;99.90;;;;;;5092463;28;20117;-65
2021/12/31 05:54:59;;;;;;;1999.90;999.90;;;12.60;99.90;;;;;;5093068;28;20119;-66
2021/12/31 05:57:25;;;;;;;1999.90;999.90;;;12.70;99.90;;;;;;5091857;28;20127;-66
2021/12/31 05:59:51;;;;;;;1999.90;999.90;;;12.60;99.90;;;;;;5072728;28;20090;-66
2021/12/31 06:02:17;;;;;;;1999.90;999.90;;;12.70;99.90;;;;;;5072775;28;20058;-66
2021/12/31 06:04:43;;;;;;;1999.90;999.90;;;12.70;99.90;;;;;;5072061;28;20036;-66
2021/12/31 06:07:09;;;;;;;1999.90;999.90;;;12.70;99.90;;;;;;5083036;28;20039;-65
2021/12/31 06:09:34;;;;;;;1999.90;999.90;;;12.60;99.90;;;;;;5099919;28;20644;-65
2021/12/31 06:12:01;;;;;;;1999.90;999.90;;;12.70;99.90;;;;;;5080102;28;20134;-66
2021/12/31 06:14:27;;;;;;;1999.90;999.90;;;12.70;99.90;;;;;;5101272;28;20500;-66
2021/12/31 06:16:52;;;;;;;1999.90;999.90;;;12.70;99.90;;;;;;5101692;28;20052;-66
2021/12/31 06:19:18;;;;;;;1999.90;999.90;;;12.70;99.90;;;;;;5082604;28;20058;-66
2021/12/31 06:21:46;;;;;;;1999.90;999.90;;;12.70;99.90;;;;;;5103355;28;20043;-66
2021/12/31 06:24:12;;;;;;;1999.90;999.90;;;12.70;99.90;;;;;;5100335;28;20398;-66
2021/12/31 06:26:37;;;;;;;1999.90;999.90;;;12.70;99.90;;;;;;5102624;28;20069;-65
2021/12/31 06:29:04;;;;;;;1999.90;999.90;;;12.70;99.90;;;;;;5100838;28;20040;-66
2021/12/31 06:31:30;;;;;;;1999.90;999.90;;;12.80;99.90;;;;;;5092362;28;20375;-66
2021/12/31 06:33:56;;;;;;;1999.90;999.90;;;12.80;99.90;;;;;;5084236;28;20055;-66
2021/12/31 06:36:22;;;;;;;1999.90;999.90;;;12.80;99.90;;;;;;5092268;28;20044;-66
2021/12/31 06:38:51;;;;;;;1999.90;999.90;;;12.70;99.90;;;;;;5080891;28;20127;-66
2021/12/31 06:41:17;;;;;;;1999.90;999.90;;;12.70;99.90;;;;;;5091861;28;20474;-65
2021/12/31 06:43:43;;;;;;;1999.90;999.90;;;12.80;99.90;;;;;;5073939;28;20510;-66
2021/12/31 06:46:09;;;;;;;1999.90;999.90;;;12.80;99.90;;;;;;5073242;28;20402;-66
2021/12/31 06:48:35;;;;;;;1999.90;999.90;;;12.70;99.90;;;;;;5092672;28;20048;-65
2021/12/31 06:51:01;;;;;;;1999.90;999.90;;;12.80;99.90;;;;;;5091877;28;20489;-66
2021/12/31 06:53:26;;;;;;;1999.90;999.90;;;12.70;99.90;;;;;;5091524;28;20055;-66
2021/12/31 06:55:52;;;;;;;1999.90;999.90;;;12.70;99.90;;;;;;5074080;28;20055;-65
2021/12/31 06:58:18;;;;;;;1999.90;999.90;;;12.70;99.90;;;;;;5092580;28;20047;-65
2021/12/31 07:00:43;;;;;;;1999.90;999.90;;;12.70;99.90;;;;;;5091665;28;20048;-66
2021/12/31 07:03:12;;;;;;;1999.90;999.90;;;12.70;99.90;;;;;;5096274;28;20128;-66
2021/12/31 07:05:42;;;;;;;1999.90;999.90;;;12.70;99.90;;;;;;5096133;28;20099;-65
2021/12/31 07:08:09;;;;;;;1999.90;999.90;;;12.70;99.90;;;;;;5095103;28;20061;-66
2021/12/31 07:10:34;;;;;;;1999.90;999.90;;;12.70;99.90;;;;;;5095469;28;20055;-65
2021/12/31 07:13:05;;;;;;;1999.90;999.90;;;12.70;99.90;;;;;;5095813;28;20402;-66
2021/12/31 07:15:31;;;;;;;1999.90;999.90;;;12.70;99.90;;;;;;5076832;28;20047;-66
2021/12/31 07:17:57;;;;;;;1999.90;999.90;;;12.70;99.90;;;;;;5094986;28;20048;-66
2021/12/31 07:20:23;;;;;;;1999.90;999.90;;;12.80;99.90;;;;;;5095629;28;20070;-65
2021/12/31 07:22:49;;;;;;;1999.90;999.90;;;12.70;99.90;;;;;;5094456;28;20072;-66
2021/12/31 07:25:15;;;;;;;1999.90;999.90;;;12.60;99.90;;;;;;5095582;28;20482;-65
2021/12/31 07:27:40;;;;;;;1999.90;999.90;;;12.60;99.90;;;;;;5095234;28;20058;-66
2021/12/31 07:30:07;;;;;;;1999.90;999.90;;;12.60;99.90;;;;;;5094705;28;20048;-66
2021/12/31 07:32:38;;;;;;;1999.90;999.90;;;12.60;99.90;;;;;;5095242;28;20040;-66
2021/12/31 07:35:05;;;;;;;1999.90;999.90;;;12.70;99.90;;;;;;5095347;28;20050;-65
2021/12/31 07:37:31;;;;;;;1999.90;999.90;;;12.70;99.90;;;;;;5094260;28;20048;-66
2021/12/31 07:40:02;;;;;;;1999.90;999.90;;;12.60;99.90;;;;;;5095321;28;20401;-65
2021/12/31 07:42:28;;;;;;;1999.90;999.90;;;12.60;99.90;;;;;;5094497;28;20552;-65
2021/12/31 07:44:54;;;;;;;1999.90;999.90;;;12.60;99.90;;;;;;5094575;28;20052;-66
2021/12/31 07:47:19;;;;;;;1999.90;999.90;;;12.60;99.90;;;;;;5095058;28;20048;-66
2021/12/31 07:49:45;;;;;;;1999.90;999.90;;;12.50;99.90;;;;;;5094670;28;20048;-66
2021/12/31 07:52:11;;;;;;;1999.90;999.90;;;12.60;99.90;;;;;;5076589;28;20093;-65
2021/12/31 07:54:37;;;;;;;1999.90;999.90;;;12.60;99.90;;;;;;5094930;28;20048;-66
2021/12/31 07:57:03;;;;;;;1999.90;999.90;;;12.70;99.90;;;;;;5094102;28;20082;-65
2021/12/31 07:59:28;;;;;;;1999.90;999.90;;;12.60;99.90;;;;;;5076792;28;20489;-66
2021/12/31 08:01:54;;;;;;;1999.90;999.90;;;12.60;99.90;;;;;;5094630;28;20056;-66
2021/12/31 08:04:20;;;;;;;1999.90;999.90;;;12.50;99.90;;;;;;5076022;28;20048;-65
2021/12/31 08:06:45;;;;;;;1999.90;999.90;;;12.50;99.90;;;;;;5094687;28;20127;-66
2021/12/31 08:09:11;;;;;;;1999.90;999.90;;;12.40;99.90;;;;;;5094549;28;20508;-65
2021/12/31 08:11:37;;;;;;;1999.90;999.90;;;12.40;99.90;;;;;;5091947;28;20520;-65
2021/12/31 08:14:04;;;;;;;1999.90;999.90;;;12.40;99.90;;;;;;5075305;28;20084;-65
2021/12/31 08:16:30;;;;;;;1999.90;999.90;;;12.40;99.90;;;;;;5094305;28;20044;-66
2021/12/31 08:18:55;;;;;;;1999.90;999.90;;;12.40;99.90;;;;;;5075756;28;20509;-66
2021/12/31 08:21:21;;;;;;;1999.90;999.90;;;12.40;99.90;;;;;;5093898;28;20340;-66
2021/12/31 08:23:48;;;;;;;1999.90;999.90;;;12.40;99.90;;;;;;5093585;28;20375;-65
2021/12/31 08:26:14;;;;;;;1999.90;999.90;;;12.40;99.90;;;;;;5093969;28;20055;-66
2021/12/31 08:28:40;;;;;;;1999.90;999.90;;;12.40;99.90;;;;;;5093990;28;20036;-66
2021/12/31 08:31:06;;;;;;;1999.90;999.90;;;12.50;99.90;;;;;;5094358;28;20043;-65
2021/12/31 08:33:32;;;;;;;1999.90;999.90;;;12.50;99.90;;;;;;5075355;28;20468;-65
2021/12/31 08:35:57;;;;;;;1999.90;999.90;;;12.50;99.90;;;;;;5094129;28;20032;-65
2021/12/31 08:38:24;;;;;;;1999.90;999.90;;;12.50;99.90;;;;;;5084675;28;20560;-66
2021/12/31 08:40:50;;;;;;;1999.90;999.90;;;12.60;99.90;;;;;;5091171;28;20071;-65
2021/12/31 08:43:17;;;;;;;1999.90;999.90;;;12.60;99.90;;;;;;5093765;28;20056;-66
2021/12/31 08:45:43;;;;;;;1999.90;999.90;;;12.50;99.90;;;;;;5075234;28;20052;-66
2021/12/31 08:48:08;;;;;;;1999.90;999.90;;;12.60;99.90;;;;;;5094135;28;20497;-66
2021/12/31 08:50:35;;;;;;;1999.90;999.90;;;12.50;99.90;;;;;;5093879;28;20470;-66
2021/12/31 08:53:02;;;;;;;1999.90;999.90;;;12.50;99.90;;;;;;5093261;28;20059;-65
2021/12/31 08:55:28;;;;;;;1999.90;999.90;;;12.60;99.90;;;;;;5075445;28;20076;-65
2021/12/31 08:57:54;;;;;;;1999.90;999.90;;;12.50;99.90;;;;;;5093131;28;20076;-65
2021/12/31 09:00:19;;;;;;;1999.90;999.90;;;12.50;99.90;;;;;;5093271;28;20444;-66
2021/12/31 09:02:46;;;;;;;1999.90;999.90;;;12.50;99.90;;;;;;5093898;28;20052;-66
2021/12/31 09:05:12;;;;;;;1999.90;999.90;;;12.60;99.90;;;;;;5093304;28;20123;-66
2021/12/31 09:07:38;;;;;;;1999.90;999.90;;;12.60;99.90;;;;;;5093072;28;20048;-66
2021/12/31 09:10:05;;;;;;;1999.90;999.90;;;12.60;99.90;;;;;;5093524;28;20120;-66
2021/12/31 09:12:30;;;;;;;1999.90;999.90;;;12.70;99.90;;;;;;5093005;28;20048;-65
2021/12/31 09:14:56;;;;;;;1999.90;999.90;;;12.70;99.90;;;;;;5092977;28;20062;-66
2021/12/31 09:17:22;;;;;;;1999.90;999.90;;;12.70;99.90;;;;;;5093511;28;20383;-65
2021/12/31 09:19:49;;;;;;;1999.90;999.90;;;12.60;99.90;;;;;;5093445;28;20452;-66
2021/12/31 09:22:15;;;;;;;1999.90;999.90;;;12.70;99.90;;;;;;5102578;28;20386;-65
2021/12/31 09:24:41;;;;;;;1999.90;999.90;;;12.80;99.90;;;;;;5101806;28;20039;-66
2021/12/31 09:27:07;;;;;;;1999.90;999.90;;;12.70;99.90;;;;;;5103098;28;20044;-65
2021/12/31 09:29:33;;;;;;;1999.90;999.90;;;12.80;99.90;;;;;;5084392;28;20126;-66
2021/12/31 09:31:59;;;;;;;1999.90;999.90;;;12.70;99.90;;;;;;5100811;28;20093;-65
2021/12/31 09:34:25;;;;;;;1999.90;999.90;;;12.70;99.90;;;;;;5099008;28;20048;-66
2021/12/31 09:36:51;;;;;;;1999.90;999.90;;;12.60;99.90;;;;;;5092116;28;20052;-65
2021/12/31 09:39:17;;;;;;;1999.90;999.90;;;12.70;99.90;;;;;;5092547;28;20059;-65
2021/12/31 09:41:43;;;;;;;1999.90;999.90;;;12.60;99.90;;;;;;5093147;28;20048;-65
2021/12/31 09:44:14;;;;;;;1999.90;999.90;;;12.70;99.90;;;;;;5092257;28;20097;-66
2021/12/31 09:46:40;;;;;;;1999.90;999.90;;;12.70;99.90;;;;;;5093013;28;20105;-67
2021/12/31 09:49:06;;;;;;;1999.90;999.90;;;12.70;99.90;;;;;;5091953;28;20267;-66
2021/12/31 09:51:33;;;;;;;1999.90;999.90;;;12.70;99.90;;;;;;5092622;28;20573;-66
2021/12/31 09:54:00;;;;;;;1999.90;999.90;;;12.70;99.90;;;;;;5093226;28;20399;-65
2021/12/31 09:56:26;;;;;;;1999.90;999.90;;;12.70;99.90;;;;;;5091610;28;20044;-65
2021/12/31 09:58:52;;;;;;;1999.90;999.90;;;12.70;99.90;;;;;;5092800;28;20063;-65
2021/12/31 10:01:18;;;;;;;1999.90;999.90;;;12.70;99.90;;;;;;5092897;28;20044;-65
2021/12/31 10:03:56;;;;;;;1999.90;999.90;;;12.70;99.90;;;;;;5092059;28;20476;-65
2021/12/31 10:06:21;;;;;;;1999.90;999.90;;;12.80;99.90;;;;;;5092201;28;20186;-67
2021/12/31 10:08:48;;;;;;;1999.90;999.90;;;12.80;99.90;;;;;;5092575;28;20123;-66
2021/12/31 10:11:17;;;;;;;1999.90;999.90;;;12.80;99.90;;;;;;5091890;28;20208;-66
2021/12/31 10:13:52;;;;;;;1999.90;999.90;;;12.80;99.90;;;;;;5092658;28;20090;-65
2021/12/31 10:16:22;;;;;;;1999.90;999.90;;;12.80;99.90;;;;;;5098493;28;20036;-65
2021/12/31 10:18:49;;;;;;;1999.90;999.90;;;12.70;99.90;;;;;;5082750;28;20681;-66
2021/12/31 10:21:19;;;;;;;1999.90;999.90;;;12.60;99.90;;;;;;5097741;28;20087;-66
2021/12/31 10:23:47;;;;;;;1999.90;999.90;;;12.40;99.90;;;;;;5093414;28;20044;-65
2021/12/31 10:26:15;;;;;;;1999.90;999.90;;;12.20;99.90;;;;;;5103674;28;20129;-65
2021/12/31 10:29:09;;;;;;;1999.90;999.90;;;12.10;99.90;;;;;;5101316;28;20039;-65
2021/12/31 10:31:43;;;;;;;1999.90;999.90;;;12.00;99.90;;;;;;5088607;28;20051;-65
2021/12/31 10:34:28;;;;;;;1999.90;999.90;;;12.00;99.90;;;;;;5099709;28;20119;-65
2021/12/31 10:36:55;;;;;;;1999.90;999.90;;;12.00;99.90;;;;;;5105345;28;20185;-65
2021/12/31 10:39:25;;;;;;;1999.90;999.90;;;12.00;99.90;;;;;;5086222;28;20039;-66
2021/12/31 10:42:03;;;;;;;1999.90;999.90;;;12.00;99.90;;;;;;5095753;28;20048;-65
2021/12/31 10:44:52;;;;;;;1999.90;999.90;;;11.90;99.90;;;;;;5096635;28;20052;-66
2021/12/31 10:47:22;;;;;;;1999.90;999.90;;;12.00;99.90;;;;;;5095642;28;20119;-66
2021/12/31 10:50:03;;;;;;;1999.90;999.90;;;11.90;99.90;;;;;;5080278;28;20123;-65
2021/12/31 10:52:34;;;;;;;1999.90;999.90;;;11.90;99.90;;;;;;5104816;28;20048;-65
2021/12/31 10:55:04;;;;;;;1999.90;999.90;;;11.90;99.90;;;;;;5105021;28;20032;-64
2021/12/31 10:57:36;;;;;;;1999.90;999.90;;;12.00;99.90;;;;;;5104542;28;20504;-65
2021/12/31 11:00:05;;;;;;;1999.90;999.90;;;12.00;99.90;;;;;;5104858;28;20037;-65
2021/12/31 11:02:34;;;;;;;1999.90;999.90;;;12.00;99.90;;;;;;5086277;28;20072;-64
2021/12/31 11:05:00;;;;;;;1999.90;999.90;;;12.00;99.90;;;;;;5095548;28;20406;-64
2021/12/31 11:07:28;;;;;;;1999.90;999.90;;;12.00;99.90;;;;;;5095091;28;20056;-64
2021/12/31 11:09:57;;;;;;;1999.90;999.90;;;12.10;99.90;;;;;;5095900;28;20063;-65
2021/12/31 11:12:24;;;;;;;1999.90;999.90;;;12.10;99.90;;;;;;5095739;28;20043;-64
2021/12/31 11:14:50;;;;;;;1999.90;999.90;;;12.10;99.90;;;;;;5095051;28;20500;-65
2021/12/31 11:17:17;;;;;;;1999.90;999.90;;;12.00;99.90;;;;;;5095525;28;20055;-64
2021/12/31 11:19:44;;;;;;;1999.90;999.90;;;12.10;99.90;;;;;;5095615;28;20035;-65
2021/12/31 11:22:11;;;;;;;1999.90;999.90;;;12.00;99.90;;;;;;5094925;28;20444;-65
2021/12/31 11:24:38;;;;;;;1999.90;999.90;;;12.00;99.90;;;;;;5095830;28;20048;-65
2021/12/31 11:27:35;;;;;;;1999.90;999.90;;;12.00;99.90;;;;;;5095194;28;20048;-65
2021/12/31 11:30:03;;;;;;;1999.90;999.90;;;12.10;99.90;;;;;;5094911;28;20052;-65
2021/12/31 11:32:47;;;;;;;1999.90;999.90;;;12.10;99.90;;;;;;5095236;28;20105;-64
2021/12/31 11:35:33;;;;;;;1999.90;999.90;;;12.10;99.90;;;;;;5093937;28;20055;-65
2021/12/31 11:38:02;;;;;;;1999.90;999.90;;;12.10;99.90;;;;;;5095387;28;20055;-65
2021/12/31 11:40:32;;;;;;;1999.90;999.90;;;12.10;99.90;;;;;;5076605;28;20091;-66
2021/12/31 11:43:13;;;;;;;1999.90;999.90;;;12.00;99.90;;;;;;5094374;28;20051;-66
2021/12/31 11:45:38;;;;;;;1999.90;999.90;;;12.00;99.90;;;;;;5095338;28;20109;-66
2021/12/31 11:48:52;;;;;;;1999.90;999.90;;;12.00;99.90;;;;;;5094838;28;20127;-66
2021/12/31 11:51:19;;;;;;;;;;;11.90;99.90;;;;;;5095398;28;20258;-65
2021/12/31 11:53:58;;;;;;;1999.90;999.90;;;11.90;99.90;;;;;;5094984;28;19927;-66
2021/12/31 11:59:07;;;;;;;1999.90;999.90;;;11.80;99.90;;;;;;5094927;28;20044;-66
2021/12/31 12:01:43;;;;;;;1999.90;999.90;;;11.70;99.90;;;;;;5096125;28;20051;-67
2021/12/31 12:04:19;;;;;;;1999.90;999.90;;;11.70;99.90;;;;;;5101074;28;20142;-67
2021/12/31 12:06:53;;;;;;;1999.90;999.90;;;11.60;99.90;;;;;;5079658;28;20052;-67
2021/12/31 12:09:19;;;;;;;1999.90;999.90;;;11.60;99.90;;;;;;5094261;28;20071;-66